Flight Track Log - Related Links

Times and Time Zones

All times are in EDT time to prevent confusion due to time zone crossing. See the BJS542 flight status page for this flight to view local times or setup timezone preferences in your user account.


Time Position Orientation Groundspeed Altitude Reporting Facility
EDT Latitude Longitude Course Direction KTS MPH feet Rate Location/Type
Wed 12:47:27 PM 40.8167 -74.1167 270° West 200 230 1,600  Level New York TRACON
Wed 12:48:27 PM 40.8167 -74.2000 270° West 238 274 3,900 2,350 Climbing New York TRACON
Wed 12:49:27 PM 40.8167 -74.2833 270° West 236 272 6,300 2,450 Climbing New York TRACON
Wed 12:50:27 PM 40.8167 -74.3667 270° West 249 287 8,800 1,950 Climbing New York TRACON
Wed 12:51:27 PM 40.8167 -74.4667 270° West 256 295 10,200 2,200 Climbing New York TRACON
Wed 12:52:27 PM 40.8333 -74.5667 282° West 296 341 13,200 2,842 Climbing New York TRACON
Wed 12:53:40 PM 40.8483 -74.6967 279° West 318 366 16,500 2,418 Climbing New York Center
Wed 12:54:41 PM 40.8658 -74.8019 282° West 318 366 18,600 1,835 Climbing New York Center
Wed 12:55:41 PM 40.8844 -74.9236 281° West 333 383 20,200 1,983 Climbing New York Center
Wed 12:56:39 PM 40.9064 -75.0678 281° West 352 405 22,500 2,136 Climbing New York Center
Wed 12:57:39 PM 40.9097 -75.2053 272° West 373 429 24,400 1,884 Climbing New York Center
Wed 12:58:40 PM 40.8794 -75.3378 253° West 369 425 26,300 1,869 Climbing New York Center
Wed 12:59:41 PM 40.8492 -75.4731 254° West 375 432 28,200 1,714 Climbing New York Center
Wed 01:00:39 PM 40.8164 -75.6133 253° West 387 445 29,700 1,525 Climbing New York Center
Wed 01:01:39 PM 40.7839 -75.7481 252° West 393 452 31,200 1,488 Climbing New York Center
Wed 01:02:40 PM 40.7486 -75.8906 252° West 404 465 32,700 1,525 Climbing New York Center
Wed 01:03:41 PM 40.7439 -76.0411 268° West 410 472 34,300 1,537 Climbing New York Center
Wed 01:04:41 PM 40.7581 -76.1900 277° West 410 472 35,800 1,525 Climbing New York Center
Wed 01:05:39 PM 40.7742 -76.3394 278° West 410 472 37,300 1,513 Climbing New York Center
Wed 01:06:40 PM 40.7878 -76.4883 277° West 410 472 38,800 1,339 Climbing New York Center
Wed 01:07:40 PM 40.7967 -76.6044 276° West 410 472 40,000 1,190 Climbing New York Center
Wed 01:08:41 PM 40.8122 -76.7564 278° West 405 466 41,200 843 Climbing New York Center
Wed 01:09:41 PM 40.8258 -76.8975 277° West 398 458 41,700 407 Climbing New York Center
Wed 01:10:39 PM 40.8369 -77.0439 276° West 393 452 42,000 303 Climbing New York Center
Wed 01:11:40 PM 40.8539 -77.1911 279° West 393 452 42,300 344 Climbing New York Center
Wed 01:12:41 PM 40.8667 -77.3406 276° West 405 466 42,700 226 Climbing New York Center
Wed 01:14:46 PM 40.8953 -77.6714 277° West 420 483 43,000 97 Climbing Cleveland Center
Wed 01:15:46 PM 40.9072 -77.8247 276° West 420 483 43,000  Level Cleveland Center
Wed 01:16:46 PM 40.9214 -77.9725 277° West 420 483 43,000  Level Cleveland Center
Wed 01:17:46 PM 40.9328 -78.1206 276° West 420 483 43,000  Level Cleveland Center
Wed 01:18:46 PM 40.9464 -78.2739 277° West 420 483 43,000  Level Cleveland Center
Wed 01:19:46 PM 40.9600 -78.4303 277° West 420 483 43,000  Level Cleveland Center
Wed 01:20:46 PM 40.9711 -78.5811 276° West 420 483 43,000  Level Cleveland Center
Wed 01:21:46 PM 40.9819 -78.7319 275° West 420 483 43,000  Level Cleveland Center
Wed 01:22:46 PM 40.9947 -78.8883 276° West 420 483 43,000  Level Cleveland Center
Wed 01:23:46 PM 41.0053 -79.0394 275° West 420 483 43,000  Level Cleveland Center
Wed 01:24:46 PM 41.0156 -79.1933 275° West 426 490 43,000  Level Cleveland Center
Wed 01:25:46 PM 41.0278 -79.3472 276° West 426 490 43,000  Level Cleveland Center
Wed 01:26:46 PM 41.0294 -79.5014 271° West 426 490 43,000  Level Cleveland Center
Wed 01:27:46 PM 41.0181 -79.6531 264° West 421 484 43,000  Level Cleveland Center
Wed 01:28:46 PM 41.0108 -79.8072 266° West 421 484 43,000  Level Cleveland Center
Wed 01:29:46 PM 41.0181 -79.9639 274° West 421 484 43,000  Level Cleveland Center
Wed 01:30:46 PM 41.0272 -80.1181 275° West 421 484 43,000  Level Cleveland Center
Wed 01:31:46 PM 41.0339 -80.2719 273° West 421 484 43,000  Level Cleveland Center
Wed 01:32:46 PM 41.0428 -80.4261 274° West 421 484 43,000  Level Cleveland Center
Wed 01:33:46 PM 41.0489 -80.5803 273° West 421 484 43,000  Level Cleveland Center
Wed 01:34:46 PM 41.0572 -80.7372 274° West 421 484 43,000 150 Level Cleveland Center
Wed 01:35:46 PM 41.0631 -80.8917 273° West 421 484 43,300 500 Climbing Cleveland Center
Wed 01:36:46 PM 41.0711 -81.0486 274° West 421 484 44,000 650 Climbing Cleveland Center
Wed 01:37:46 PM 41.0725 -81.1808 271° West 416 479 44,600 500 Climbing Cleveland Center
Wed 01:38:46 PM 41.0800 -81.3325 274° West 410 472 45,000 200 Climbing Cleveland Center
Wed 01:39:46 PM 41.0828 -81.4922 271° West 405 466 45,000  Level Cleveland Center
Wed 01:40:46 PM 41.0878 -81.6464 273° West 410 472 45,000  Level Cleveland Center
Wed 01:41:46 PM 41.0947 -81.8008 273° West 423 487 45,000  Level Cleveland Center
Wed 01:42:46 PM 41.1011 -81.9553 273° West 423 487 45,000  Level Cleveland Center
Wed 01:43:46 PM 41.1078 -82.0933 274° West 423 487 45,000  Level Cleveland Center
Wed 01:44:46 PM 41.1142 -82.2450 273° West 423 487 45,000  Level Cleveland Center
Wed 01:45:46 PM 41.1200 -82.4022 273° West 423 487 45,000  Level Cleveland Center
Wed 01:46:46 PM 41.1239 -82.5514 272° West 417 480 45,000  Level Cleveland Center
Wed 01:47:46 PM 41.1272 -82.7031 272° West 417 480 45,000  Level Cleveland Center
Wed 01:48:46 PM 41.1328 -82.8547 273° West 417 480 45,000  Level Cleveland Center
Wed 01:49:46 PM 41.1356 -83.0203 271° West 417 480 45,000  Level Cleveland Center
Wed 01:50:46 PM 41.1406 -83.1750 273° West 422 486 45,000  Level Cleveland Center
Wed 01:51:46 PM 41.1436 -83.3131 272° West 417 480 45,000  Level Cleveland Center
Wed 01:52:46 PM 41.1461 -83.4647 271° West 424 488 45,000  Level Cleveland Center
Wed 01:53:46 PM 41.1503 -83.6222 272° West 424 488 45,000  Level Cleveland Center
Wed 01:54:46 PM 41.1544 -83.7739 272° West 424 488 45,000  Level Cleveland Center
Wed 01:55:46 PM 41.1625 -83.9289 274° West 424 488 45,000  Level Cleveland Center
Wed 01:56:16 PM 41.1625 -84.0117 270° West 420 483 45,000  Level Chicago Center
Wed 01:57:18 PM 41.1656 -84.1664 272° West 421 484 45,000  Level Chicago Center
Wed 01:58:20 PM 41.1678 -84.3194 271° West 417 480 45,000  Level Chicago Center
Wed 01:59:22 PM 41.1697 -84.4733 271° West 416 479 45,000  Level Chicago Center
Wed 02:00:24 PM 41.1717 -84.6267 271° West 415 478 45,000  Level Chicago Center
Wed 02:01:26 PM 41.1742 -84.8111 271° West 415 478 45,000  Level Chicago Center
Wed 02:02:28 PM 41.1761 -84.9664 271° West 419 482 45,000  Level Chicago Center
Wed 02:03:31 PM 41.1764 -85.1200 270° West 416 479 45,000  Level Chicago Center
Wed 02:04:33 PM 41.1778 -85.2767 271° West 419 482 45,000  Level Chicago Center
Wed 02:05:35 PM 41.1792 -85.4344 271° West 424 488 45,000  Level Chicago Center
Wed 02:06:38 PM 41.1797 -85.5919 270° West 426 490 45,000  Level Chicago Center
Wed 02:07:40 PM 41.1811 -85.7836 271° West 429 494 45,000  Level Chicago Center
Wed 02:08:42 PM 41.1819 -85.9431 270° West 432 497 45,000  Level Chicago Center
Wed 02:09:44 PM 41.1811 -86.1008 270° West 429 494 45,000  Level Chicago Center
Wed 02:10:46 PM 41.1817 -86.2617 270° West 433 498 45,000  Level Chicago Center
Wed 02:11:48 PM 41.1797 -86.4231 269° West 438 504 45,000  Level Chicago Center
Wed 02:12:50 PM 41.1794 -86.5856 270° West 441 507 45,000  Level Chicago Center
Wed 02:13:52 PM 41.1800 -86.7750 270° West 445 512 45,000  Level Chicago Center
Wed 02:14:54 PM 41.1794 -86.9397 270° West 448 516 45,000  Level Chicago Center
Wed 02:15:56 PM 41.1786 -87.1047 270° West 449 517 45,000  Level Chicago Center
Wed 02:16:58 PM 41.1772 -87.2706 269° West 452 520 45,000  Level Chicago Center
Wed 02:18:00 PM 41.1753 -87.4372 269° West 451 519 45,000  Level Chicago Center
Wed 02:19:02 PM 41.1719 -87.6347 269° West 443 510 45,000  Level Chicago Center
Wed 02:20:04 PM 41.1697 -87.7969 269° West 438 504 45,000  Level Chicago Center
Wed 02:21:06 PM 41.1664 -87.9592 268° West 436 502 45,000  Level Chicago Center
Wed 02:22:08 PM 41.1633 -88.1222 269° West 436 502 45,000  Level Chicago Center
Wed 02:23:10 PM 41.1608 -88.2856 269° West 440 506 45,000  Level Chicago Center
Wed 02:24:12 PM 41.1583 -88.4478 269° West 439 505 45,000  Level Chicago Center
Wed 02:25:14 PM 41.1558 -88.6078 269° West 435 501 45,000  Level Chicago Center
Wed 02:26:16 PM 41.1517 -88.8022 268° West 438 504 45,000  Level Chicago Center
Wed 02:27:18 PM 41.1500 -88.9669 269° West 445 512 45,000  Level Chicago Center
Wed 02:28:20 PM 41.1453 -89.1289 268° West 445 512 45,000  Level Chicago Center
Wed 02:29:22 PM 41.1422 -89.2919 269° West 444 511 45,000  Level Chicago Center
Wed 02:30:24 PM 41.1369 -89.4539 268° West 444 511 45,000  Level Chicago Center
Wed 02:31:26 PM 41.1331 -89.6161 268° West 443 510 45,000  Level Chicago Center
Wed 02:32:28 PM 41.1272 -89.8094 268° West 442 509 45,000  Level Chicago Center
Wed 02:33:30 PM 41.1219 -89.9706 268° West 442 509 45,000  Level Chicago Center
Wed 02:34:32 PM 41.1167 -90.1303 268° West 440 506 45,000  Level Chicago Center
Wed 02:35:34 PM 41.1103 -90.2908 267° West 440 506 45,000  Level Chicago Center
Wed 02:36:36 PM 41.1042 -90.4503 267° West 437 503 45,000  Level Chicago Center
Wed 02:37:38 PM 41.0975 -90.6428 267° West 437 503 45,000  Level Chicago Center
Wed 02:38:40 PM 41.0903 -90.8031 267° West 438 504 45,000  Level Chicago Center
Wed 02:39:42 PM 41.0847 -90.9633 267° West 438 504 45,000  Level Chicago Center
Wed 02:40:44 PM 41.0764 -91.1244 266° West 440 506 45,000  Level Chicago Center
Wed 02:41:46 PM 41.0686 -91.2847 266° West 437 503 45,000  Level Chicago Center
Wed 02:42:49 PM 41.0622 -91.4469 267° West 440 506 45,000  Level Chicago Center
Wed 02:43:51 PM 41.0533 -91.6386 267° West 436 502 45,000  Level Chicago Center
Wed 02:44:53 PM 41.0456 -91.7967 266° West 440 506 45,000  Level Chicago Center
Wed 02:45:55 PM 41.0381 -91.9550 266° West 438 504 45,000  Level Chicago Center
Wed 02:46:57 PM 41.0297 -92.1172 266° West 441 507 45,000  Level Chicago Center
Wed 02:47:59 PM 41.0197 -92.3086 266° West 440 506 45,000  Level Chicago Center
Wed 02:49:01 PM 41.0114 -92.4681 266° West 438 504 45,000  Level Chicago Center
Wed 02:50:03 PM 41.0025 -92.6269 266° West 439 505 45,000  Level Chicago Center
Wed 02:51:06 PM 40.9939 -92.7861 266° West 439 505 45,000  Level Chicago Center
Wed 02:52:08 PM 40.9817 -92.9764 265° West 438 504 45,000  Level Chicago Center
Wed 02:53:12 PM 40.9719 -93.1356 265° West 438 504 45,000  Level Minneapolis Center
Wed 02:54:14 PM 40.9647 -93.2917 267° West 432 497 45,000  Level Minneapolis Center
Wed 02:55:16 PM 40.9547 -93.4528 265° West 441 507 45,000  Level Minneapolis Center
Wed 02:56:18 PM 40.9408 -93.6472 265° West 445 512 45,000  Level Minneapolis Center
Wed 02:57:20 PM 40.9303 -93.8083 265° West 446 513 45,000  Level Minneapolis Center
Wed 02:58:23 PM 40.9194 -93.9697 265° West 445 512 45,000  Level Minneapolis Center
Wed 02:59:25 PM 40.9075 -94.1339 265° West 450 518 45,000  Level Minneapolis Center
Wed 03:00:27 PM 40.8942 -94.3269 265° West 445 512 45,000  Level Minneapolis Center
Wed 03:01:29 PM 40.8783 -94.4933 263° West 453 521 45,000  Level Minneapolis Center
Wed 03:02:31 PM 40.8672 -94.6508 265° West 447 514 45,000  Level Minneapolis Center
Wed 03:03:34 PM 40.8578 -94.8108 266° West 440 506 45,000  Level Minneapolis Center
Wed 03:04:36 PM 40.8447 -94.9764 264° West 447 514 45,000  Level Minneapolis Center
Wed 03:05:38 PM 40.8292 -95.1719 264° West 447 514 45,000  Level Minneapolis Center
Wed 03:06:40 PM 40.8164 -95.3333 264° West 443 510 45,000  Level Minneapolis Center
Wed 03:07:42 PM 40.8036 -95.4944 264° West 440 506 45,000  Level Minneapolis Center
Wed 03:08:44 PM 40.7906 -95.6531 264° West 436 502 45,000  Level Minneapolis Center
Wed 03:09:46 PM 40.7778 -95.8119 264° West 433 498 45,000  Level Minneapolis Center
Wed 03:10:48 PM 40.7633 -95.9711 263° West 435 501 45,000  Level Minneapolis Center
Wed 03:11:50 PM 40.7500 -96.1319 264° West 437 503 45,000  Level Minneapolis Center
Wed 03:12:52 PM 40.7361 -96.2911 263° West 435 501 45,000  Level Minneapolis Center
Wed 03:13:55 PM 40.7194 -96.4814 263° West 435 501 45,000  Level Minneapolis Center
Wed 03:14:57 PM 40.7050 -96.6397 263° West 434 499 45,000  Level Minneapolis Center
Wed 03:15:59 PM 40.6911 -96.7978 263° West 434 499 45,000  Level Minneapolis Center
Wed 03:17:01 PM 40.6758 -96.9547 263° West 432 497 45,000  Level Minneapolis Center
Wed 03:18:03 PM 40.6606 -97.1114 263° West 432 497 45,000  Level Minneapolis Center
Wed 03:19:05 PM 40.6461 -97.2697 263° West 433 498 45,000  Level Minneapolis Center
Wed 03:20:07 PM 40.6297 -97.4436 263° West 432 497 45,000  Level Minneapolis Center
Wed 03:21:09 PM 40.6131 -97.6028 262° West 436 502 45,000  Level Minneapolis Center
Wed 03:22:11 PM 40.5972 -97.7617 263° West 437 503 45,000  Level Minneapolis Center
Wed 03:23:14 PM 40.5811 -97.9222 263° West 440 506 45,000  Level Minneapolis Center
Wed 03:24:16 PM 40.5606 -98.1147 262° West 441 507 45,000  Level Minneapolis Center
Wed 03:25:18 PM 40.5439 -98.2750 262° West 442 509 45,000  Level Minneapolis Center
Wed 03:26:20 PM 40.5267 -98.4356 262° West 441 507 45,000  Level Minneapolis Center
Wed 03:27:22 PM 40.5092 -98.5950 262° West 440 506 45,000  Level Minneapolis Center
Wed 03:28:24 PM 40.4925 -98.7553 262° West 440 506 45,000  Level Minneapolis Center
Wed 03:29:26 PM 40.4733 -98.9150 261° West 441 507 45,000  Level Minneapolis Center
Wed 03:30:28 PM 40.4558 -99.0747 262° West 441 507 45,000  Level Minneapolis Center
Wed 03:31:30 PM 40.4350 -99.2672 262° West 441 507 45,000  Level Minneapolis Center
Wed 03:32:33 PM 40.4167 -99.4278 262° West 443 510 45,000  Level Minneapolis Center
Wed 03:33:35 PM 40.3978 -99.5889 261° West 445 512 45,000  Level Minneapolis Center
Wed 03:34:37 PM 40.3783 -99.7489 261° West 445 512 45,000  Level Minneapolis Center
Wed 03:35:39 PM 40.3592 -99.9092 261° West 445 512 45,000  Level Minneapolis Center
Wed 03:36:41 PM 40.3406 -100.0681 261° West 443 510 45,000  Level Minneapolis Center
Wed 03:37:43 PM 40.3175 -100.2617 261° West 445 512 45,000  Level Minneapolis Center
Wed 03:38:45 PM 40.2986 -100.4206 261° West 444 511 45,000  Level Minneapolis Center
Wed 03:39:47 PM 40.2783 -100.5786 261° West 442 509 45,000  Level Minneapolis Center
Wed 03:41:17 PM 40.2461 -100.8156 260° West 441 507 45,000  Level Denver Center
Wed 03:42:19 PM 40.2261 -100.9675 260° West 441 507 45,000  Level Denver Center
Wed 03:43:21 PM 40.2033 -101.1453 261° West 444 511 45,000  Level Denver Center
Wed 03:44:23 PM 40.1833 -101.2958 260° West 440 506 45,000  Level Denver Center
Wed 03:45:25 PM 40.1594 -101.4728 260° West 440 506 45,000 -48 Level Denver Center
Wed 03:46:27 PM 40.1397 -101.6253 260° West 442 509 44,900 -532 Descending Denver Center
Wed 03:47:29 PM 40.1183 -101.7758 260° West 442 509 43,900 -1,016 Descending Denver Center
Wed 03:48:31 PM 40.0947 -101.9472 260° West 430 495 42,800 -1,258 Descending Denver Center
Wed 03:49:33 PM 40.0739 -102.0933 259° West 427 491 41,300 -1,258 Descending Denver Center
Wed 03:50:35 PM 40.0486 -102.2725 260° West 447 514 40,200 -629 Descending Denver Center
Wed 03:51:37 PM 40.0267 -102.4250 259° West 447 514 40,000 -97 Descending Denver Center
Wed 03:52:39 PM 40.0017 -102.6039 260° West 449 517 40,000  Level Denver Center
Wed 03:53:41 PM 39.9786 -102.7606 259° West 452 520 40,000  Level Denver Center
Wed 03:54:45 PM 39.9550 -102.9197 259° West 450 518 40,000  Level Denver Center
Wed 03:55:46 PM 39.9311 -103.0825 259° West 455 524 40,000  Level Denver Center
Wed 03:56:48 PM 39.9019 -103.2747 259° West 454 522 40,000  Level Denver Center
Wed 03:57:50 PM 39.8775 -103.4347 259° West 452 520 40,000  Level Denver Center
Wed 03:58:52 PM 39.8528 -103.5950 259° West 453 521 40,000  Level Denver Center
Wed 04:00:00 PM 39.8211 -103.7626 256° West  Level FlightAware Approximate
Wed 04:00:56 PM 39.8031 -103.9203 256° West 460 529 40,000  Level Denver Center
Wed 04:01:58 PM 39.7778 -104.0800 258° West 454 522 40,000  Level Denver Center
Wed 04:03:00 PM 39.7472 -104.2711 258° West 449 517 40,000 -97 Level Denver Center
Wed 04:04:02 PM 39.7211 -104.4314 258° West 455 524 39,800 -581 Descending Denver Center
Wed 04:05:04 PM 39.6975 -104.5886 259° West 463 533 38,800 -1,210 Descending Denver Center
Wed 04:06:06 PM 39.6794 -104.7492 262° West 499 574 37,300 -1,597 Descending Denver Center
Wed 04:07:08 PM 39.6583 -104.9394 262° West 450 518 35,500 -1,597 Descending Denver Center
Wed 04:08:10 PM 39.6411 -105.0992 262° West 444 511 34,000 -1,440 Descending Denver Center
Wed 04:09:13 PM 39.6236 -105.2603 262° West 452 520 32,500 -1,440 Descending Denver Center
Wed 04:10:15 PM 39.6047 -105.4278 262° West 470 541 31,000 -1,452 Descending Denver Center
Wed 04:11:17 PM 39.5878 -105.5942 263° West 464 534 29,500 -1,597 Descending Denver Center
Wed 04:12:19 PM 39.5667 -105.7825 262° West 443 510 27,700 -1,597 Descending Denver Center
Wed 04:13:21 PM 39.5517 -105.9339 263° West 426 490 26,200 -1,742 Descending Denver Center
Wed 04:14:23 PM 39.5339 -106.0856 261° West 425 489 24,100 -2,129 Descending Denver Center
Wed 04:15:25 PM 39.5181 -106.2319 262° West 418 481 21,800 -1,984 Descending Denver Center
Wed 04:16:27 PM 39.5011 -106.3764 261° West 408 470 20,000 -871 Descending Denver Center
Wed 04:17:29 PM 39.4814 -106.5317 261° West 385 443 20,000  Level Denver Center
Wed 04:18:31 PM 39.5031 -106.6272 286° West 304 350 20,000  Level Denver Center
Wed 04:19:33 PM 39.5378 -106.7258 295° West 274 315 20,000 -435 Level Denver Center
Wed 04:20:35 PM 39.5653 -106.8042 295° West 258 297 19,100 -1,355 Descending Denver Center
Wed 04:21:37 PM 39.5814 -106.8975 283° West 258 297 17,200 -1,597 Descending Denver Center
Wed 04:22:39 PM 39.5189 -106.9253 199° South 256 295 15,800 -1,210 Descending Denver Center
Wed 04:23:41 PM 39.4558 -106.9375 189° South 242 278 14,700 -1,355 Descending Denver Center
Wed 04:24:43 PM 39.3900 -106.9492 188° South 227 261 13,000 -1,306 Descending Denver Center
Wed 04:25:45 PM 39.3308 -106.9578 186° South 223 257 12,000 -968 Descending Denver Center
Wed 04:27:00 PM 39.2167 -106.8667 180° South  Level FlightAware Approximate
Wed 04:34:00 PM 39.2219 -106.8682 180° South  Level Estimated

Login

Don't have an account? Register now (free) for customized features, flight alerts, and more!